Time;durP1;ratioP1;P1;durP2;ratioP2;P2;SDS_P1;SDS_P2;PMS_P1;PMS_P2;Temp;Humidity;BMP_temperature;BMP_pressure;BME280_temperature;BME280_humidity;BME280_pressure;Samples;Min_cycle;Max_cycle;Signal;HPM_P1;HPM_P2
2020/12/31 00:00:50;;;;;;;7.87;4.37;;;;;;;0.35;79.69;99675.94;5040199;28;20121;-75
2020/12/31 00:03:16;;;;;;;9.17;4.63;;;;;;;0.33;79.51;99681.94;5043937;28;20064;-75
2020/12/31 00:05:41;;;;;;;8.83;3.93;;;;;;;0.28;80.26;99676.66;5044928;28;20449;-75
2020/12/31 00:08:06;;;;;;;6.87;3.93;;;;;;;0.26;79.86;99675.72;5042945;28;20036;-75
2020/12/31 00:10:32;;;;;;;9.17;4.27;;;;;;;0.24;79.46;99677.44;5041275;28;20033;-75
2020/12/31 00:12:58;;;;;;;9.63;4.43;;;;;;;0.22;79.82;99679.13;5041533;28;20040;-75
2020/12/31 00:15:24;;;;;;;7.87;4.60;;;;;;;0.24;79.85;99686.94;5044710;28;20041;-75
2020/12/31 00:17:49;;;;;;;9.73;4.93;;;;;;;0.24;80.56;99690.41;5044587;28;20075;-75
2020/12/31 00:20:14;;;;;;;9.47;5.83;;;;;;;0.31;80.87;99681.03;5041140;28;20037;-75
2020/12/31 00:22:40;;;;;;;8.60;5.33;;;;;;;0.36;80.82;99685.47;5046964;28;20033;-75
2020/12/31 00:25:06;;;;;;;8.23;4.80;;;;;;;0.47;81.11;99687.41;5044333;28;20095;-75
2020/12/31 00:27:32;;;;;;;10.07;4.60;;;;;;;0.50;80.31;99683.19;5044440;28;20044;-75
2020/12/31 00:29:57;;;;;;;8.97;4.40;;;;;;;0.53;80.32;99695.34;5043786;28;20067;-75
2020/12/31 00:32:22;;;;;;;10.10;4.70;;;;;;;0.50;81.05;99690.06;5039413;28;20033;-75
2020/12/31 00:34:48;;;;;;;9.87;4.33;;;;;;;0.55;80.79;99693.66;5039960;28;20129;-75
2020/12/31 00:37:13;;;;;;;9.17;4.43;;;;;;;0.64;80.49;99696.44;5044054;28;20119;-75
2020/12/31 00:39:38;;;;;;;9.73;4.63;;;;;;;0.68;80.73;99695.66;5045066;28;20038;-75
2020/12/31 00:42:04;;;;;;;8.37;4.50;;;;;;;0.72;80.61;99700.06;5041863;28;20045;-75
2020/12/31 00:44:29;;;;;;;8.17;4.63;;;;;;;0.81;80.93;99704.56;5043997;28;20033;-75
2020/12/31 00:46:54;;;;;;;11.00;4.70;;;;;;;0.85;80.27;99703.78;5043897;28;20103;-75
2020/12/31 00:49:20;;;;;;;10.50;5.00;;;;;;;0.92;80.51;99700.47;5039346;28;20116;-75
2020/12/31 00:51:45;;;;;;;10.23;4.63;;;;;;;0.95;79.74;99703.13;5039117;28;20060;-75
2020/12/31 00:54:10;;;;;;;7.97;4.47;;;;;;;1.00;79.98;99703.22;5041300;28;20496;-75
2020/12/31 00:56:36;;;;;;;7.93;4.23;;;;;;;0.99;79.98;99694.53;5042587;28;20037;-75
2020/12/31 00:59:02;;;;;;;9.50;4.40;;;;;;;1.01;79.73;99703.22;5041273;28;20036;-75
2020/12/31 01:01:29;;;;;;;7.90;4.03;;;;;;;1.07;80.02;99705.06;5040187;28;20558;-75
2020/12/31 01:03:55;;;;;;;7.43;4.00;;;;;;;1.07;80.01;99708.56;5038875;28;20029;-75
2020/12/31 01:06:20;;;;;;;8.37;4.50;;;;;;;1.10;79.46;99710.31;5042518;28;20487;-75
2020/12/31 01:08:45;;;;;;;9.23;4.30;;;;;;;1.15;79.98;99697.41;5043618;28;20041;-75
2020/12/31 01:11:11;;;;;;;6.67;4.40;;;;;;;1.20;79.62;99700.97;5044001;28;20079;-75
2020/12/31 01:13:37;;;;;;;7.20;3.50;;;;;;;1.20;79.11;99704.44;5043380;28;20067;-75
2020/12/31 01:16:02;;;;;;;6.77;4.10;;;;;;;1.21;79.51;99710.53;5042374;28;20644;-75
2020/12/31 01:18:27;;;;;;;15.53;5.13;;;;;;;1.25;79.52;99710.59;5038831;28;20030;-75
2020/12/31 01:20:53;;;;;;;6.23;3.80;;;;;;;1.26;78.85;99714.97;5038592;28;20458;-75
2020/12/31 01:23:18;;;;;;;6.77;4.17;;;;;;;1.27;79.14;99711.50;5041855;28;20064;-75
2020/12/31 01:25:43;;;;;;;7.47;4.20;;;;;;;1.21;79.48;99711.41;5043448;28;20033;-75
2020/12/31 01:28:09;;;;;;;6.93;4.03;;;;;;;1.25;78.89;99713.19;5041248;28;20032;-75
2020/12/31 01:30:34;;;;;;;9.33;3.87;;;;;;;1.29;79.02;99712.44;5040045;28;20032;-75
2020/12/31 01:33:00;;;;;;;7.80;4.50;;;;;;;1.31;78.59;99709.88;5040369;28;20124;-75
2020/12/31 01:35:25;;;;;;;7.63;3.90;;;;;;;1.27;78.70;99711.50;5043347;28;20041;-75
2020/12/31 01:37:50;;;;;;;6.10;3.73;;;;;;;1.27;78.72;99714.13;5043093;28;20067;-75
2020/12/31 01:40:16;;;;;;;6.63;4.03;;;;;;;1.35;78.71;99715.97;5040019;28;20395;-75
2020/12/31 01:42:42;;;;;;;6.40;4.23;;;;;;;1.43;78.59;99723.06;5039514;28;20136;-75
2020/12/31 01:45:08;;;;;;;8.17;4.20;;;;;;;1.52;78.81;99714.56;5041487;28;20044;-75
2020/12/31 01:47:34;;;;;;;6.33;3.90;;;;;;;1.64;78.19;99714.75;5043178;28;20114;-75
2020/12/31 01:50:01;;;;;;;7.23;4.00;;;;;;;1.77;77.95;99720.16;5042025;28;20668;-75
2020/12/31 01:52:28;;;;;;;8.77;3.87;;;;;;;1.83;77.63;99715.06;5039347;28;20476;-75
2020/12/31 01:54:54;;;;;;;5.93;3.57;;;;;;;1.82;77.79;99702.91;5039722;28;20033;-75
2020/12/31 01:57:19;;;;;;;6.13;3.37;;;;;;;1.83;77.37;99709.84;5043003;28;20037;-75
2020/12/31 01:59:45;;;;;;;6.17;3.37;;;;;;;1.78;77.07;99716.69;5042914;28;20047;-74
2020/12/31 02:02:10;;;;;;;6.20;3.70;;;;;;;1.73;77.08;99714.06;5040345;28;20487;-75
2020/12/31 02:04:36;;;;;;;6.87;3.90;;;;;;;1.65;77.74;99713.91;5038941;28;20041;-75
2020/12/31 02:07:01;;;;;;;8.23;3.30;;;;;;;1.65;77.52;99713.00;5040377;28;20033;-74
2020/12/31 02:09:27;;;;;;;5.87;3.70;;;;;;;1.63;77.25;99719.94;5041557;28;20483;-74
2020/12/31 02:11:52;;;;;;;4.80;3.23;;;;;;;1.65;77.07;99716.53;5042676;28;20048;-75
2020/12/31 02:14:18;;;;;;;5.90;3.57;;;;;;;1.66;76.92;99723.47;5039244;28;20045;-75
2020/12/31 02:16:43;;;;;;;5.97;3.37;;;;;;;1.68;77.21;99718.28;5039347;28;20052;-74
2020/12/31 02:19:12;;;;;;;5.83;3.67;;;;;;;1.71;76.90;99721.81;5041190;28;20147;-75
2020/12/31 02:21:45;;;;;;;5.57;3.20;;;;;;;1.78;76.71;99724.50;5042621;28;20368;-74
2020/12/31 02:24:10;;;;;;;;;;;;;;;1.74;76.46;99721.00;5039341;28;20037;-75
2020/12/31 02:26:37;;;;;;;7.07;3.67;;;;;;;1.77;76.55;99723.63;5039291;28;19923;-74
2020/12/31 02:29:05;;;;;;;6.20;3.50;;;;;;;1.78;76.14;99721.91;5040334;28;20029;-75
2020/12/31 02:31:31;;;;;;;5.83;3.37;;;;;;;1.75;76.52;99723.59;5041218;28;20434;-75
2020/12/31 02:33:57;;;;;;;6.37;3.73;;;;;;;1.75;76.13;99730.53;5041995;28;20041;-74
2020/12/31 02:36:25;;;;;;;5.97;3.67;;;;;;;1.71;75.97;99724.41;5039434;28;20040;-75
2020/12/31 02:38:51;;;;;;;5.93;3.93;;;;;;;1.60;76.65;99723.38;5037685;28;20069;-75
2020/12/31 02:41:17;;;;;;;4.67;3.27;;;;;;;1.56;76.48;99726.75;5042090;28;20045;-74
2020/12/31 02:43:43;;;;;;;5.10;3.53;;;;;;;1.49;77.01;99732.69;5042285;28;20064;-75
2020/12/31 02:46:14;;;;;;;6.33;3.70;;;;;;;1.43;76.94;99727.38;5040430;28;20056;-75
2020/12/31 02:48:40;;;;;;;5.80;3.50;;;;;;;1.38;77.21;99732.50;5039119;28;20025;-75
2020/12/31 02:51:09;;;;;;;6.77;3.67;;;;;;;1.33;77.05;99738.47;5040516;28;20112;-75
2020/12/31 02:53:35;;;;;;;8.87;3.70;;;;;;;1.28;77.40;99730.56;5042196;28;20033;-74
2020/12/31 02:56:01;;;;;;;5.93;3.07;;;;;;;1.24;77.30;99734.00;5041558;28;20025;-74
2020/12/31 02:58:26;;;;;;;8.30;3.90;;;;;;;1.22;77.61;99733.06;5037700;28;20455;-74
2020/12/31 03:00:51;;;;;;;7.13;3.93;;;;;;;1.23;77.81;99740.91;5038743;28;20044;-75
2020/12/31 03:03:17;;;;;;;5.50;3.57;;;;;;;1.24;77.73;99737.47;5041763;28;20033;-75
2020/12/31 03:05:43;;;;;;;5.30;3.60;;;;;;;1.33;77.74;99738.47;5042341;28;20091;-75
2020/12/31 03:08:08;;;;;;;5.70;4.00;;;;;;;1.38;77.51;99742.91;5040370;28;20116;-75
2020/12/31 03:10:33;;;;;;;8.53;4.00;;;;;;;1.50;77.41;99735.31;5038803;28;20480;-75
2020/12/31 03:12:59;;;;;;;8.80;4.27;;;;;;;1.59;77.21;99742.41;5047191;28;20025;-74
2020/12/31 03:15:24;;;;;;;5.37;3.60;;;;;;;1.72;76.70;99736.56;5038997;28;20048;-75
2020/12/31 03:17:50;;;;;;;6.67;3.73;;;;;;;1.82;76.95;99736.72;5042383;28;20041;-75
2020/12/31 03:20:16;;;;;;;6.77;3.30;;;;;;;1.94;76.64;99734.34;5045056;28;20029;-74
2020/12/31 03:22:41;;;;;;;4.97;3.30;;;;;;;2.05;76.14;99739.69;5045432;28;20040;-75
2020/12/31 03:25:07;;;;;;;4.38;3.25;;;;;;;2.17;75.85;99738.16;5043904;28;20033;-75
2020/12/31 03:27:33;;;;;;;6.10;3.17;;;;;;;2.28;75.71;99738.31;5042204;28;20029;-75
2020/12/31 03:29:58;;;;;;;5.63;3.90;;;;;;;2.33;75.29;99733.16;5041164;28;20053;-75
2020/12/31 03:32:24;;;;;;;5.73;3.53;;;;;;;2.48;75.25;99740.31;5045341;28;20033;-75
2020/12/31 03:34:50;;;;;;;6.40;3.20;;;;;;;2.59;74.40;99736.13;5044235;28;20040;-75
2020/12/31 03:37:15;;;;;;;4.90;3.33;;;;;;;2.67;74.37;99738.81;5042573;28;20495;-75
2020/12/31 03:39:41;;;;;;;6.72;3.95;;;;;;;2.74;74.27;99740.66;5041903;28;20207;-75
2020/12/31 03:42:07;;;;;;;5.72;3.55;;;;;;;2.78;74.44;99732.91;5043281;28;20056;-75
2020/12/31 03:44:32;;;;;;;7.13;3.92;;;;;;;2.81;74.45;99732.94;5045184;28;20459;-75
2020/12/31 03:46:57;;;;;;;5.32;3.67;;;;;;;2.79;74.08;99733.78;5044762;28;20040;-74
2020/12/31 03:49:23;;;;;;;6.28;3.60;;;;;;;2.80;73.69;99740.72;5041807;28;20033;-75
2020/12/31 03:51:48;;;;;;;5.70;3.70;;;;;;;2.83;73.58;99738.19;5041647;28;20036;-75
2020/12/31 03:54:13;;;;;;;5.35;3.45;;;;;;;2.88;73.67;99736.47;5044131;28;20039;-75
2020/12/31 03:56:39;;;;;;;5.13;3.58;;;;;;;2.85;73.25;99739.06;5045028;28;20033;-74
2020/12/31 03:59:04;;;;;;;6.13;3.50;;;;;;;2.91;73.62;99735.66;5043410;28;20041;-75
2020/12/31 04:01:31;;;;;;;5.65;2.95;;;;;;;2.92;73.54;99729.59;5041488;28;20029;-75
2020/12/31 04:03:56;;;;;;;5.63;3.17;;;;;;;2.91;73.84;99733.03;5041502;28;20041;-74
2020/12/31 04:06:22;;;;;;;5.78;3.42;;;;;;;2.91;73.23;99735.66;5044966;28;20111;-75
2020/12/31 04:08:47;;;;;;;4.65;3.33;;;;;;;2.88;73.71;99733.00;5044818;28;20491;-75
2020/12/31 04:11:13;;;;;;;5.43;3.55;;;;;;;2.80;73.85;99727.69;5042183;28;20051;-74
2020/12/31 04:13:38;;;;;;;5.57;3.80;;;;;;;2.76;73.59;99733.75;5039731;28;20046;-75
2020/12/31 04:16:03;;;;;;;7.60;3.63;;;;;;;2.75;73.98;99732.88;5042542;28;20417;-75
2020/12/31 04:18:29;;;;;;;5.45;3.92;;;;;;;2.82;73.90;99733.81;5044617;28;20514;-75
2020/12/31 04:20:54;;;;;;;5.47;3.60;;;;;;;2.87;73.98;99737.34;5044462;28;20147;-75
2020/12/31 04:23:19;;;;;;;6.35;3.53;;;;;;;2.89;73.80;99727.81;5040928;28;20029;-75
2020/12/31 04:25:47;;;;;;;5.50;3.65;;;;;;;2.89;73.27;99735.66;5041126;28;20030;-74
2020/12/31 04:28:12;;;;;;;6.68;3.90;;;;;;;2.89;73.13;99727.81;5042963;28;20087;-75
2020/12/31 04:30:38;;;;;;;5.72;3.78;;;;;;;2.90;72.84;99726.09;5044300;28;20029;-75
2020/12/31 04:33:03;;;;;;;5.35;3.08;;;;;;;2.90;72.67;99732.16;5042884;28;20032;-74
2020/12/31 04:35:28;;;;;;;5.97;3.60;;;;;;;2.92;72.80;99735.69;5039622;28;20135;-75
2020/12/31 04:37:53;;;;;;;6.25;4.10;;;;;;;2.95;72.62;99734.84;5039515;28;20052;-75
2020/12/31 04:40:19;;;;;;;6.10;3.20;;;;;;;2.94;72.75;99727.88;5043993;28;20036;-75
2020/12/31 04:42:49;;;;;;;7.03;4.40;;;;;;;2.97;72.70;99731.41;5043874;28;20040;-75
2020/12/31 04:45:14;;;;;;;6.03;3.20;;;;;;;2.97;72.18;99734.00;5041660;28;20990;-75
2020/12/31 04:47:50;;;;;;;5.88;4.22;;;;;;;2.94;72.33;99728.75;5039363;28;20041;-74
2020/12/31 04:50:20;;;;;;;6.38;3.90;;;;;;;2.90;72.49;99724.34;5045061;28;20029;-74
2020/12/31 04:52:47;;;;;;;6.57;3.88;;;;;;;2.90;72.51;99726.09;5044559;28;20033;-73
2020/12/31 04:55:13;;;;;;;5.28;3.35;;;;;;;2.91;72.18;99723.50;5042944;28;20040;-74
2020/12/31 04:57:38;;;;;;;9.60;3.75;;;;;;;2.85;72.39;99739.06;5043931;28;20403;-75
2020/12/31 05:00:04;;;;;;;4.70;3.30;;;;;;;2.77;72.80;99727.66;5042489;28;20040;-74
2020/12/31 05:02:29;;;;;;;5.40;3.45;;;;;;;2.71;72.79;99735.41;5040084;28;20403;-75
2020/12/31 05:04:54;;;;;;;6.10;4.00;;;;;;;2.63;72.68;99743.13;5040309;28;20088;-74
2020/12/31 05:07:20;;;;;;;6.82;3.35;;;;;;;2.59;72.92;99751.75;5046202;28;20029;-74
2020/12/31 05:09:45;;;;;;;5.30;3.58;;;;;;;2.58;72.87;99756.09;5043664;28;20041;-74
2020/12/31 05:12:11;;;;;;;5.35;3.28;;;;;;;2.59;72.94;99762.16;5041021;28;20052;-74
2020/12/31 05:14:37;;;;;;;5.38;3.20;;;;;;;2.58;73.15;99756.09;5040162;28;20444;-74
2020/12/31 05:17:18;;;;;;;5.25;3.20;;;;;;;2.51;72.98;99758.59;5041148;28;20033;-74
2020/12/31 05:19:45;;;;;;;6.05;3.58;;;;;;;2.41;73.42;99757.56;5043477;28;20119;-75
2020/12/31 05:22:15;;;;;;;7.32;4.00;;;;;;;2.29;73.16;99760.00;5040911;28;20072;-75
2020/12/31 05:24:46;;;;;;;5.95;3.80;;;;;;;2.12;73.21;99754.53;5040034;28;20103;-74
2020/12/31 05:27:24;;;;;;;8.38;3.65;;;;;;;1.91;74.05;99762.88;5042592;28;20443;-75
2020/12/31 05:30:19;;;;;;;5.70;4.00;;;;;;;1.68;73.87;99752.13;5043302;28;20036;-75
2020/12/31 05:32:44;;;;;;;6.40;4.55;;;;;;;1.56;74.42;99757.97;5029939;28;20146;-74
2020/12/31 05:35:11;;;;;;;7.53;4.70;;;;;;;1.43;74.88;99762.06;5041911;28;20065;-75
2020/12/31 05:37:37;;;;;;;6.97;4.60;;;;;;;1.28;75.06;99762.69;5041959;28;20045;-73
2020/12/31 05:40:05;;;;;;;6.00;4.10;;;;;;;1.14;75.69;99769.31;5041227;28;20040;-75
2020/12/31 05:42:32;;;;;;;5.87;3.97;;;;;;;1.00;75.72;99770.78;5039383;28;20087;-74
2020/12/31 05:45:03;;;;;;;6.23;3.80;;;;;;;0.86;76.14;99773.97;5040029;28;20034;-75
2020/12/31 05:47:31;;;;;;;7.40;3.93;;;;;;;0.73;76.13;99774.53;5043108;28;20048;-75
2020/12/31 05:49:56;;;;;;;7.20;4.27;;;;;;;0.62;76.54;99779.50;5041397;28;20040;-75
2020/12/31 05:52:35;;;;;;;7.70;4.60;;;;;;;0.51;77.00;99781.00;5039332;28;20075;-75
2020/12/31 05:55:03;;;;;;;6.90;4.50;;;;;;;0.42;76.73;99778.22;5040306;28;20037;-74
2020/12/31 05:57:49;;;;;;;7.57;4.33;;;;;;;0.27;76.77;99781.31;5042873;28;20036;-75
2020/12/31 06:00:25;;;;;;;11.03;5.70;;;;;;;0.17;77.42;99787.13;5040010;28;20084;-75
2020/12/31 06:02:59;;;;;;;10.33;6.90;;;;;;;0.09;77.88;99783.47;5039261;28;20161;-75
2020/12/31 06:05:26;;;;;;;12.70;8.03;;;;;;;0.03;78.67;99793.69;5032000;28;20048;-75
2020/12/31 06:07:53;;;;;;;12.37;7.60;;;;;;;-0.05;78.71;99791.81;5039394;28;20132;-74
2020/12/31 06:10:26;;;;;;;9.17;6.50;;;;;;;-0.08;79.44;99794.34;5042385;28;20041;-74
2020/12/31 06:13:04;;;;;;;9.30;5.90;;;;;;;-0.12;79.15;99794.22;5042816;28;20428;-75
2020/12/31 06:15:35;;;;;;;9.50;6.20;;;;;;;-0.21;79.97;99789.66;5032571;28;20510;-75
2020/12/31 06:18:02;;;;;;;8.67;6.23;;;;;;;-0.30;79.58;99797.22;5040097;28;20041;-73
2020/12/31 06:20:29;;;;;;;11.23;6.20;;;;;;;-0.35;79.41;99799.69;5042476;28;20040;-75
2020/12/31 06:23:05;;;;;;;7.90;5.30;;;;;;;-0.37;80.12;99800.47;5042413;28;20488;-74
2020/12/31 06:25:31;;;;;;;8.67;4.87;;;;;;;-0.37;79.79;99796.16;5039275;28;20118;-74
2020/12/31 06:28:03;;;;;;;9.57;5.50;;;;;;;-0.40;80.49;99801.28;5039463;28;20033;-74
2020/12/31 06:30:30;;;;;;;8.13;5.32;;;;;;;-0.41;80.05;99804.72;5041553;28;20455;-74
2020/12/31 06:32:55;;;;;;;7.53;4.57;;;;;;;-0.39;79.68;99799.56;5042239;28;20033;-74
2020/12/31 06:35:21;;;;;;;8.23;5.67;;;;;;;-0.40;80.58;99803.88;5039202;28;20488;-74
2020/12/31 06:37:56;;;;;;;8.70;5.37;;;;;;;-0.48;80.02;99802.78;5039016;28;20028;-74
2020/12/31 06:40:30;;;;;;;8.80;6.10;;;;;;;-0.53;80.03;99815.63;5046565;28;20046;-75
2020/12/31 06:43:10;;;;;;;7.67;5.47;;;;;;;-0.63;79.63;99826.56;5038889;28;20441;-74
2020/12/31 06:45:36;;;;;;;7.30;5.00;;;;;;;-0.72;79.50;99829.81;5042463;28;20059;-74
2020/12/31 06:48:03;;;;;;;9.40;6.27;;;;;;;-0.82;79.89;99837.28;5041514;28;20045;-74
2020/12/31 06:51:00;;;;;;;9.13;5.53;;;;;;;-0.93;80.15;99835.25;5040413;28;20040;-75
2020/12/31 06:53:45;;;;;;;10.20;6.33;;;;;;;-1.01;79.67;99841.06;5035066;28;20039;-74
2020/12/31 06:56:13;;;;;;;9.23;6.27;;;;;;;-1.15;80.14;99833.75;5045019;28;20044;-75
2020/12/31 06:58:39;;;;;;;7.27;5.33;;;;;;;-1.26;79.86;99834.25;5045596;28;20114;-75
2020/12/31 07:01:28;;;;;;;8.13;5.10;;;;;;;-1.37;79.77;99842.56;5050734;28;20040;-74
2020/12/31 07:03:57;;;;;;;8.77;5.50;;;;;;;-1.40;80.25;99844.19;5042424;28;20061;-75
2020/12/31 07:06:23;;;;;;;8.57;5.50;;;;;;;-1.47;80.37;99834.47;5034733;28;20118;-75
2020/12/31 07:08:53;;;;;;;9.63;5.90;;;;;;;-1.53;80.70;99829.13;5042394;28;20130;-75
2020/12/31 07:11:31;;;;;;;9.23;5.77;;;;;;;-1.63;80.89;99834.00;5045672;28;20037;-75
2020/12/31 07:13:56;;;;;;;9.00;5.43;;;;;;;-1.67;81.53;99839.06;5044068;28;20062;-75
2020/12/31 07:16:44;;;;;;;8.27;5.13;;;;;;;-1.71;81.25;99840.66;5042382;28;20029;-74
2020/12/31 07:19:09;;;;;;;11.57;6.17;;;;;;;-1.70;80.95;99838.94;5042979;28;20034;-75
2020/12/31 07:21:38;;;;;;;9.10;5.80;;;;;;;-1.70;80.99;99846.69;5045594;28;20487;-75
2020/12/31 07:24:23;;;;;;;9.30;6.03;;;;;;;-1.77;81.63;99841.34;5044322;28;20039;-75
2020/12/31 07:26:50;;;;;;;10.17;5.60;;;;;;;-1.75;81.32;99845.69;5042264;28;20033;-75
2020/12/31 07:29:29;;;;;;;8.90;5.80;;;;;;;-1.80;81.50;99843.81;5045285;28;20395;-74
2020/12/31 07:31:55;;;;;;;9.83;5.90;;;;;;;-1.80;81.52;99841.25;5045787;28;20032;-74
2020/12/31 07:34:26;;;;;;;10.97;6.47;;;;;;;-1.76;82.07;99842.19;5033784;28;20108;-74
2020/12/31 07:37:06;;;;;;;9.43;5.60;;;;;;;-1.72;81.39;99848.38;5040696;28;20044;-74
2020/12/31 07:39:33;;;;;;;7.67;5.23;;;;;;;-1.69;81.21;99849.34;5035234;28;20120;-74
2020/12/31 07:42:18;;;;;;;8.30;5.30;;;;;;;-1.68;80.79;99850.22;5042194;28;20515;-73
2020/12/31 07:44:54;;;;;;;8.97;5.20;;;;;;;-1.62;81.36;99847.84;5044036;28;20028;-74
2020/12/31 07:47:22;;;;;;;9.73;6.00;;;;;;;-1.56;80.85;99841.13;5041843;28;20051;-75
2020/12/31 07:49:49;;;;;;;8.13;5.63;;;;;;;-1.48;80.59;99848.28;5041798;28;20037;-73
2020/12/31 07:52:14;;;;;;;11.90;7.70;;;;;;;-1.42;80.93;99849.31;5044005;28;20029;-74
2020/12/31 07:54:40;;;;;;;9.63;7.07;;;;;;;-1.35;80.94;99850.41;5045100;28;20028;-74
2020/12/31 07:57:09;;;;;;;8.03;5.47;;;;;;;-1.29;81.17;99847.97;5043705;28;20037;-73
2020/12/31 07:59:39;;;;;;;9.30;5.70;;;;;;;-1.20;80.91;99848.28;5041515;28;20033;-74
2020/12/31 08:02:05;;;;;;;8.93;6.27;;;;;;;-1.08;81.36;99846.88;5041909;28;20084;-75
2020/12/31 08:04:30;;;;;;;9.10;5.70;;;;;;;-0.98;81.28;99849.78;5044809;28;20044;-75
2020/12/31 08:06:56;;;;;;;10.83;6.30;;;;;;;-0.91;80.68;99843.94;5043412;28;20076;-74
2020/12/31 08:09:22;;;;;;;8.50;6.27;;;;;;;-0.85;80.78;99845.84;5040145;28;20041;-74
2020/12/31 08:11:50;;;;;;;8.73;5.83;;;;;;;-0.74;80.50;99848.72;5039997;28;20040;-74
2020/12/31 08:14:16;;;;;;;9.53;6.50;;;;;;;-0.65;79.64;99846.41;5043932;28;20048;-74
2020/12/31 08:16:41;;;;;;;9.43;6.30;;;;;;;-0.56;79.18;99838.00;5044770;28;20025;-75
2020/12/31 08:19:07;;;;;;;9.07;5.93;;;;;;;-0.49;79.80;99843.41;5043079;28;20483;-74
2020/12/31 08:21:34;;;;;;;8.53;5.40;;;;;;;-0.36;79.93;99848.91;5040963;28;20037;-75
2020/12/31 08:24:06;;;;;;;8.43;5.37;;;;;;;-0.24;79.49;99846.63;5041469;28;20523;-75
2020/12/31 08:26:32;;;;;;;7.50;5.22;;;;;;;-0.12;79.37;99853.88;5044573;28;20041;-74
2020/12/31 08:28:58;;;;;;;7.03;4.70;;;;;;;0.07;78.78;99847.44;5042772;28;20106;-74
2020/12/31 08:31:25;;;;;;;6.83;4.33;;;;;;;0.26;78.30;99840.97;5040953;28;20112;-75
2020/12/31 08:33:58;;;;;;;6.67;4.30;;;;;;;0.41;77.97;99839.59;5040692;28;20033;-75
2020/12/31 08:36:25;;;;;;;5.67;3.80;;;;;;;0.57;77.46;99838.25;5033310;28;20124;-75
2020/12/31 08:38:53;;;;;;;7.57;5.13;;;;;;;0.68;77.47;99841.06;5040678;28;20649;-75
2020/12/31 08:41:20;;;;;;;9.27;5.13;;;;;;;0.82;76.53;99834.50;5042537;28;20037;-74
2020/12/31 08:43:45;;;;;;;8.33;5.23;;;;;;;0.95;76.42;99839.97;5043894;28;20068;-74
2020/12/31 08:46:36;;;;;;;14.13;6.50;;;;;;;1.08;75.62;99836.78;5042034;28;20068;-75
2020/12/31 08:49:02;;;;;;;15.20;7.73;;;;;;;1.24;75.74;99840.56;5041254;28;20084;-74
2020/12/31 08:51:30;;;;;;;8.30;5.40;;;;;;;1.35;74.84;99832.97;5043915;28;20029;-74
2020/12/31 08:54:00;;;;;;;7.87;4.90;;;;;;;1.46;74.64;99839.25;5046126;28;20033;-74
2020/12/31 08:56:31;;;;;;;6.37;3.73;;;;;;;1.57;74.44;99836.84;5039296;28;20037;-74
2020/12/31 08:59:06;;;;;;;6.97;4.73;;;;;;;1.66;73.75;99842.25;5040596;28;20041;-74
2020/12/31 09:01:32;;;;;;;8.00;5.03;;;;;;;1.72;74.28;99835.41;5043684;28;20079;-74
2020/12/31 09:04:10;;;;;;;14.10;6.03;;;;;;;1.80;73.98;99839.88;5043227;28;20491;-74
2020/12/31 09:06:42;;;;;;;18.87;9.67;;;;;;;1.88;73.67;99846.97;5040344;28;20044;-74
2020/12/31 09:09:24;;;;;;;14.90;6.27;;;;;;;1.98;72.74;99837.63;5041942;28;20143;-75
2020/12/31 09:12:08;;;;;;;6.95;4.45;;;;;;;2.05;72.64;99839.47;5043632;28;20128;-75
2020/12/31 09:14:38;;;;;;;6.63;4.43;;;;;;;2.15;72.33;99832.72;5033704;28;20040;-75
2020/12/31 09:17:22;;;;;;;6.63;4.20;;;;;;;2.17;72.25;99837.09;5041226;28;20037;-75
2020/12/31 09:19:54;;;;;;;7.90;4.97;;;;;;;2.24;71.43;99837.19;5043437;28;20041;-74
2020/12/31 09:22:20;;;;;;;6.57;4.47;;;;;;;2.35;71.87;99840.81;5039802;28;20034;-74
2020/12/31 09:24:46;;;;;;;9.32;4.75;;;;;;;2.35;71.50;99835.63;5040055;28;20041;-75
2020/12/31 09:27:21;;;;;;;8.82;4.03;;;;;;;2.34;70.92;99842.56;5042110;28;20120;-75
2020/12/31 09:29:46;;;;;;;7.05;4.57;;;;;;;2.40;71.36;99839.16;5043345;28;20076;-74
2020/12/31 09:32:12;;;;;;;7.25;4.28;;;;;;;2.41;71.26;99828.78;5040691;28;20060;-74
2020/12/31 09:34:37;;;;;;;7.38;5.40;;;;;;;2.37;70.52;99837.38;5039820;28;20037;-75
2020/12/31 09:37:02;;;;;;;8.93;6.07;;;;;;;2.42;71.54;99837.47;5040826;28;20045;-74
2020/12/31 09:39:28;;;;;;;7.82;5.63;;;;;;;2.45;71.03;99837.50;5043123;28;20033;-75
2020/12/31 09:41:53;;;;;;;7.30;4.63;;;;;;;2.53;71.06;99829.81;5041480;28;20113;-75
2020/12/31 09:44:20;;;;;;;9.68;6.93;;;;;;;2.53;70.73;99833.28;5039605;28;20527;-75
2020/12/31 09:46:45;;;;;;;8.02;5.75;;;;;;;2.59;70.58;99833.41;5039646;28;20037;-75
2020/12/31 09:49:11;;;;;;;7.93;4.85;;;;;;;2.61;70.57;99830.81;5041676;28;20033;-74
2020/12/31 09:51:36;;;;;;;6.45;4.78;;;;;;;2.67;70.57;99825.66;5042987;28;20029;-75
2020/12/31 09:54:01;;;;;;;6.28;4.25;;;;;;;2.76;70.56;99828.44;5041900;28;20040;-74
2020/12/31 09:56:30;;;;;;;7.22;4.93;;;;;;;2.74;70.19;99826.66;5039482;28;20025;-74
2020/12/31 09:58:59;;;;;;;6.47;4.10;;;;;;;2.80;70.33;99825.03;5039476;28;20065;-75
2020/12/31 10:01:25;;;;;;;8.68;4.55;;;;;;;2.89;70.07;99819.03;5042804;28;20043;-74
2020/12/31 10:03:51;;;;;;;7.18;4.50;;;;;;;2.91;69.53;99817.34;5042602;28;20032;-75
2020/12/31 10:06:16;;;;;;;8.48;4.47;;;;;;;2.95;69.78;99819.13;5040048;28;20075;-74
2020/12/31 10:08:42;;;;;;;5.82;3.85;;;;;;;2.99;69.32;99814.84;5038172;28;20036;-75
2020/12/31 10:11:07;;;;;;;5.97;4.18;;;;;;;3.02;68.77;99815.75;5040928;28;20033;-74
2020/12/31 10:13:32;;;;;;;5.85;3.78;;;;;;;3.04;68.94;99807.97;5042618;28;20048;-75
2020/12/31 10:15:59;;;;;;;5.78;4.28;;;;;;;3.02;68.51;99807.94;5042473;28;20037;-75
2020/12/31 10:18:24;;;;;;;5.80;3.80;;;;;;;3.01;68.51;99802.69;5038097;28;20033;-75
2020/12/31 10:20:50;;;;;;;5.88;3.78;;;;;;;3.08;68.16;99800.16;5039098;28;20044;-75
2020/12/31 10:23:15;;;;;;;8.05;3.78;;;;;;;3.15;68.61;99800.25;5041790;28;20122;-75
2020/12/31 10:25:40;;;;;;;6.78;4.22;;;;;;;3.21;68.28;99795.97;5045220;28;20068;-74
2020/12/31 10:28:06;;;;;;;7.55;4.30;;;;;;;3.24;68.35;99795.13;5045309;28;20033;-75
2020/12/31 10:30:31;;;;;;;8.27;4.45;;;;;;;3.25;67.81;99791.69;5043255;28;20112;-74
2020/12/31 10:32:56;;;;;;;6.15;4.22;;;;;;;3.30;68.25;99787.38;5041879;28;20033;-74
2020/12/31 10:35:22;;;;;;;5.90;3.80;;;;;;;3.34;67.70;99786.56;5045380;28;20049;-74
2020/12/31 10:37:47;;;;;;;6.10;4.18;;;;;;;3.36;66.98;99787.47;5046491;28;20033;-75
2020/12/31 10:40:12;;;;;;;6.25;4.10;;;;;;;3.37;67.43;99785.72;5044114;28;20556;-75
2020/12/31 10:42:38;;;;;;;8.40;4.50;;;;;;;3.40;67.57;99784.00;5042768;28;20463;-75
2020/12/31 10:45:03;;;;;;;7.70;3.92;;;;;;;3.45;67.17;99778.84;5044071;28;20040;-75
2020/12/31 10:47:28;;;;;;;6.57;4.05;;;;;;;3.48;67.46;99776.28;5046335;28;20040;-75
2020/12/31 10:49:54;;;;;;;5.88;3.85;;;;;;;3.47;67.62;99766.72;5047449;28;20506;-75
2020/12/31 10:52:19;;;;;;;6.65;3.92;;;;;;;3.50;67.43;99765.00;5046099;28;20082;-75
2020/12/31 10:54:44;;;;;;;7.18;4.05;;;;;;;3.55;67.88;99769.41;5046182;28;20114;-74
2020/12/31 10:57:10;;;;;;;5.53;3.85;;;;;;;3.55;67.79;99759.81;5044258;28;20075;-75
2020/12/31 10:59:35;;;;;;;6.00;3.80;;;;;;;3.54;67.19;99752.88;5042759;28;20096;-75
2020/12/31 11:02:01;;;;;;;6.25;3.85;;;;;;;3.51;67.14;99750.22;5043204;28;20049;-74
2020/12/31 11:04:26;;;;;;;6.55;4.07;;;;;;;3.59;67.08;99752.91;5046008;28;20461;-75
2020/12/31 11:06:51;;;;;;;7.20;4.47;;;;;;;3.60;66.28;99742.47;5046107;28;20442;-75
2020/12/31 11:09:17;;;;;;;7.35;4.50;;;;;;;3.65;67.04;99739.94;5042974;28;20033;-75
2020/12/31 11:11:42;;;;;;;6.68;4.60;;;;;;;3.67;65.82;99738.22;5042528;28;20036;-75
2020/12/31 11:14:08;;;;;;;6.65;4.68;;;;;;;3.70;65.91;99733.00;5043936;28;20059;-75
2020/12/31 11:16:33;;;;;;;7.72;4.47;;;;;;;3.77;66.40;99731.31;5045899;28;20025;-75
2020/12/31 11:18:59;;;;;;;6.60;4.20;;;;;;;3.84;66.18;99728.78;5044101;28;20554;-75
2020/12/31 11:21:24;;;;;;;6.45;4.40;;;;;;;3.88;65.77;99720.13;5040949;28;20507;-75
2020/12/31 11:23:50;;;;;;;6.85;4.60;;;;;;;3.85;64.62;99722.72;5041975;28;20029;-74
2020/12/31 11:26:20;;;;;;;7.78;4.80;;;;;;;3.97;65.27;99713.22;5043787;28;20048;-75
2020/12/31 11:28:46;;;;;;;7.30;4.60;;;;;;;3.98;65.13;99718.44;5044317;28;20040;-75
2020/12/31 11:31:13;;;;;;;7.80;5.20;;;;;;;4.05;65.26;99714.13;5043266;28;20033;-75
2020/12/31 11:33:39;;;;;;;5.57;4.20;;;;;;;4.11;64.94;99701.13;5040635;28;20416;-74
2020/12/31 11:36:05;;;;;;;6.63;4.30;;;;;;;4.19;65.08;99702.03;5042607;28;20045;-75
2020/12/31 11:38:31;;;;;;;7.78;4.55;;;;;;;4.27;64.34;99700.38;5044759;28;20060;-74
2020/12/31 11:40:56;;;;;;;6.28;3.90;;;;;;;4.35;63.53;99706.50;5045183;28;20559;-74